Jamestown Regional Airport
KJMS : now visible

Airfield :











YOU CAN JOIN US ON...

 
LOGIN :

Register | Disclaimer

   EN    FR    IT 

 









Legend :    VFR   Marginal VFR   IFR   Intensive IFR   Very Intensive IFR
Visi :
Ceiling :
>= 8 km
>= 3000ft
5 to 8 km
1000 to 3000 ft
1500m to 5 km
500 to 1000 ft
800 to 1500m
200 to 500 ft
< 800m
< 200 ft
Symbols :   Thunderstorms  Fog  Heavy snow  Heavy precipitations  Wind > 20 kt






- Airport Elevation : 1500 ft
- IATA code : JMS


KJMS - Jamestown Regional

CURRENT METAR :
  • 141656Z AUTO 27015G24KT 10SM CLR 04/00 A3007 RMK AO2 SLP209 T00390000

EXPIRED METARs :
  • 141556Z AUTO 25012KT 10SM SCT060 01/M02 A3007 RMK AO2 SLP209 T00111017

TAF KJMS
Valid from the 14 at 12:00 until the 15 at 12:00 UTC


141124Z 1412/1512 23006KT P6SM FEW120
FM141700 27012G20KT P6SM BKN080
FM150200 31005KT P6SM OVC030
FM151000 09005KT P6SM OVC010



MET'MAP, your aeronautical weather chart ! - Copyright ORBIFLY December 2007 - Disclaimer

ORBIFLY MET'MAP TEAM :

Programming & Development : Alexandra Zaïnal
Concept & Development : Baudouin d'Aumeries
Co-Development & Prog : Marc-Olivier Méhu
Technical & hardware support : Manuel Goepfert

Contact : metmap@orbifly.com




SOURCES & CREDITS :

   NOAA       Earth
Advisory